• Join FlightAware (Why Join?)
  • Login
  • US Flag 
Rudolph Flight #1: Arrived! 
01:52PM EST


 

Airport Tracker/Info


-or-


 

Live Flight TrackerFlight Track Log ✈ AAL1138 ✈ 20-Apr-2013 ✈ MDSD / SDQ - KMIA

Flight Track Log - Related Links

Times and Time Zones

All times are in EDT time to prevent confusion due to time zone crossing. See the AAL1138 flight status page for this flight to view local times or setup timezone preferences in your user account.

Time Position Orientation Groundspeed Altitude Reporting Facility
EDT Latitude Longitude Course Direction KTS MPH feet Rate Location/Type
04:16PM 18.6976 -69.8452 328° Northwest  Level FlightAware Approximate
04:17PM 18.7868 -69.9041 328° Northwest  Level FlightAware Approximate
04:18PM 18.8761 -69.9630 328° Northwest  Level FlightAware Approximate
04:19PM 18.9653 -70.0220 328° Northwest  Level FlightAware Approximate
04:20PM 19.0545 -70.0811 328° Northwest  Level FlightAware Approximate
04:20PM 18.5178 -70.0747 327° Northwest 462 532 20,800  Level Miami Center
04:21PM 19.1334 -70.1334 325° Northwest  Level FlightAware Approximate
04:21PM 18.6189 -70.1028 345° North 435 501 22,800  Level Miami Center
04:22PM 19.2193 -70.1978 325° Northwest  Level FlightAware Approximate
04:23PM 19.3052 -70.2622 325° Northwest  Level FlightAware Approximate
04:23PM 18.8181 -70.2397 327° Northwest 409 471 28,000  Level Miami Center
04:24PM 19.3977 -70.3270 327° Northwest  Level FlightAware Approximate
04:24PM 18.9222 -70.2939 334° Northwest 414 476 30,400  Level Miami Center
04:25PM 19.4911 -70.3904 327° Northwest  Level FlightAware Approximate
04:25PM 19.0244 -70.3483 333° Northwest 420 483 32,300  Level Miami Center
04:26PM 19.1264 -70.4028 333° Northwest 420 483 34,400 1,620 Climbing Miami Center
04:27PM 19.2289 -70.4617 332° Northwest 420 483 35,600 780 Climbing Miami Center
04:28PM 19.3311 -70.5186 332° Northwest 420 483 36,000 180 Climbing Miami Center
04:29PM 19.4353 -70.5753 333° Northwest 420 483 36,000  Level Miami Center
04:30PM 19.5397 -70.6344 332° Northwest 425 489 36,000  Level Miami Center
04:31PM 19.6461 -70.6892 334° Northwest 425 489 36,000  Level Miami Center
04:32PM 19.7481 -70.7461 332° Northwest 425 489 36,000  Level Miami Center
04:33PM 19.8506 -70.8078 330° Northwest 425 489 36,000  Level Miami Center
04:34PM 19.9550 -70.8672 332° Northwest 425 489 36,000  Level Miami Center
04:35PM 20.0589 -70.9200 334° Northwest 425 489 36,000  Level Miami Center
04:36PM 20.1572 -70.9819 329° Northwest 420 483 36,000  Level Miami Center
04:37PM 20.2636 -71.0394 333° Northwest 420 483 36,000  Level Miami Center
04:38PM 20.3636 -71.0969 332° Northwest 420 483 36,000  Level Miami Center
04:39PM 20.4503 -71.1819 317° Northwest 425 489 36,000  Level Miami Center
04:40PM 20.5231 -71.2939 305° West 420 483 36,000  Level Miami Center
04:41PM 20.5875 -71.4042 302° West 425 489 36,000  Level Miami Center
04:42PM 20.6536 -71.5100 304° West 432 497 36,000  Level Miami Center
04:43PM 20.7175 -71.6117 304° West 427 491 36,000  Level Miami Center
04:44PM 20.7836 -71.7178 304° West 427 491 36,000  Level Miami Center
04:45PM 20.8475 -71.8219 303° West 427 491 36,000  Level Miami Center
04:46PM 20.9114 -71.9261 303° West 421 484 36,000  Level Miami Center
04:47PM 20.9794 -72.0325 304° West 426 490 36,000  Level Miami Center
04:48PM 21.0453 -72.1367 304° West 426 490 36,000  Level Miami Center
04:49PM 21.0978 -72.2217 304° West 426 490 36,000  Level Miami Center
04:50PM 21.1769 -72.3503 303° West 426 490 36,000  Level Miami Center
04:51PM 21.2447 -72.4592 304° West 431 496 36,000  Level Miami Center
04:52PM 21.3103 -72.5683 303° West 431 496 36,000  Level Miami Center
04:53PM 21.3781 -72.6753 304° West 431 496 36,000  Level Miami Center
04:54PM 21.4433 -72.7781 304° West 426 490 36,000  Level Miami Center
04:55PM 21.5067 -72.8856 302° West 426 490 36,000  Level Miami Center
04:56PM 21.5719 -72.9883 304° West 426 490 36,000  Level Miami Center
04:57PM 21.6331 -73.0917 302° West 426 490 36,000  Level Miami Center
04:58PM 21.6961 -73.1969 303° West 421 484 36,000  Level Miami Center
04:59PM 21.7631 -73.2981 305° West 426 490 36,000  Level Miami Center
05:00PM 21.8242 -73.4036 302° West 421 484 36,000  Level Miami Center
05:01PM 21.8847 -73.5072 302° West 421 484 36,000  Level Miami Center
05:02PM 21.9367 -73.5908 304° West 421 484 36,000  Level Miami Center
05:03PM 22.0103 -73.7144 303° West 421 484 36,000  Level Miami Center
05:04PM 22.0606 -73.8253 296° West 416 479 36,000  Level Miami Center
05:05PM 22.1253 -73.9292 304° West 411 473 36,000  Level Miami Center
05:06PM 22.1919 -74.0353 304° West 422 486 36,000  Level Miami Center
05:07PM 22.2506 -74.1461 300° West 422 486 36,000  Level Miami Center
05:08PM 22.3169 -74.2503 305° West 422 486 36,000  Level Miami Center
05:09PM 22.3814 -74.3569 303° West 422 486 36,000  Level Miami Center
05:10PM 22.4439 -74.4636 302° West 427 491 36,000  Level Miami Center
05:11PM 22.5061 -74.5703 302° West 422 486 36,000  Level Miami Center
05:12PM 22.5703 -74.6769 303° West 422 486 36,000  Level Miami Center
05:13PM 22.6303 -74.7864 301° West 422 486 36,000  Level Miami Center
05:14PM 22.6944 -74.8933 303° West 422 486 36,000  Level Miami Center
05:15PM 22.7583 -74.9983 303° West 422 486 36,000  Level Miami Center
05:16PM 22.8225 -75.1056 303° West 422 486 36,000  Level Miami Center
05:17PM 22.8819 -75.2128 301° West 422 486 36,000  Level Miami Center
05:18PM 22.9439 -75.3206 302° West 422 486 36,000  Level Miami Center
05:19PM 23.0075 -75.4303 302° West 422 486 36,000  Level Miami Center
05:20PM 23.0711 -75.5378 303° West 422 486 36,000  Level Miami Center
05:21PM 23.1328 -75.6481 301° West 422 486 36,000  Level Miami Center
05:22PM 23.1878 -75.7447 302° West 422 486 36,000  Level Miami Center
05:23PM 23.2575 -75.8503 306° West 427 491 36,000  Level Miami Center
05:24PM 23.3439 -75.9425 316° Northwest 427 491 36,000  Level Miami Center
05:25PM 23.4383 -76.0211 323° Northwest 427 491 36,000  Level Miami Center
05:26PM 23.5411 -76.0883 329° Northwest 427 491 36,000  Level Miami Center
05:27PM 23.6458 -76.1467 333° Northwest 427 491 36,000  Level Miami Center
05:28PM 23.7028 -76.2597 299° West 406 467 36,000  Level Miami Center
05:29PM 23.7347 -76.3822 286° West 406 467 36,000  Level Miami Center
05:30PM 23.7767 -76.5047 291° West 418 481 36,000  Level Miami Center
05:31PM 23.8272 -76.6203 296° West 418 481 36,000  Level Miami Center
05:32PM 23.8858 -76.7294 300° West 418 481 36,000  Level Miami Center
05:33PM 23.9422 -76.8431 299° West 418 481 36,000  Level Miami Center
05:34PM 23.9925 -76.9497 297° West 416 479 36,000  Level Miami Center
05:35PM 24.0236 -77.0706 286° West 409 471 36,000  Level Miami Center
05:36PM 24.0528 -77.1911 285° West 409 471 36,000  Level Miami Center
05:37PM 24.0964 -77.3050 293° West 409 471 36,000  Level Miami Center
05:38PM 24.1522 -77.4144 299° West 404 465 36,000  Level Miami Center
05:39PM 24.2125 -77.5219 302° West 410 472 36,000  Level Miami Center
05:40PM 24.2725 -77.6339 300° West 418 481 36,000  Level Miami Center
05:41PM 24.3325 -77.7461 300° West 423 487 36,000  Level Miami Center
05:42PM 24.3944 -77.8606 301° West 423 487 36,000  Level Miami Center
05:43PM 24.4544 -77.9706 301° West 423 487 36,000  Level Miami Center
05:44PM 24.5203 -78.0922 301° West 423 487 36,000 -120 Level Miami Center
05:45PM 24.5672 -78.2092 294° West 423 487 35,800 -480 Descending Miami Center
05:46PM 24.5389 -78.3347 256° West 399 459 35,100 -780 Descending Miami Center
05:47PM 24.4981 -78.4528 249° West 410 472 34,300 -2,100 Descending Miami Center
05:48PM 24.4592 -78.5781 251° West 417 480 31,000 -3,240 Descending Miami Center
05:49PM 24.4222 -78.7006 252° West 422 486 27,900 -2,280 Descending Miami Center
05:50PM 24.3914 -78.8211 254° West 422 486 26,500 -1,500 Descending Miami Center
05:51PM 24.3833 -78.9375 266° West 408 470 24,900 -1,200 Descending Miami Center
05:52PM 24.4597 -79.0186 316° Northwest 347 399 24,100 -480 Descending Miami Center
05:53PM 24.5506 -79.0842 327° Northwest 360 414 24,000 -60 Descending Miami Center
05:54PM 24.6456 -79.1567 325° Northwest 384 442 24,000  Level Miami Center
05:55PM 24.7344 -79.2222 326° Northwest 384 442 24,000 -120 Level Miami Center
05:56PM 24.8317 -79.2906 327° Northwest 395 455 23,800 -1,020 Descending Miami Center
05:57PM 24.9203 -79.3633 323° Northwest 395 455 22,000 -1,920 Descending Miami Center
05:58PM 25.0108 -79.4339 325° Northwest 395 455 20,000 -1,980 Descending Miami Center
05:59PM 25.0975 -79.5000 325° Northwest 400 460 18,100 -2,040 Descending Miami Center
06:00PM 25.1778 -79.5636 324° Northwest 380 437 16,000 -1,980 Descending Miami Center
06:01PM 25.2581 -79.6253 325° Northwest 370 426 14,200 -1,740 Descending Miami Center
06:02PM 25.3386 -79.6869 325° Northwest 355 409 12,600 -1,500 Descending Miami Center
06:02PM 25.3650 -79.7150 316° Northwest 337 388 12,200 -600 Descending Miami Center
06:03PM 25.4061 -79.7550 319° Northwest 340 391 12,000 -240 Descending Miami Center
06:03PM 25.4286 -79.7856 309° West 299 344 12,000 -300 Level Miami Center
06:04PM 25.4550 -79.8208 310° West 305 351 11,700 -720 Descending Miami Center
06:04PM 25.4669 -79.8508 294° West 238 274 11,300 -1,200 Descending Miami Center
06:05PM 25.4933 -79.8814 314° West 272 313 10,500 -1,320 Descending Miami Center
06:05PM 25.5053 -79.9072 297° West 234 269 10,000 -1,440 Descending Miami Center
06:06PM 25.5297 -79.9400 310° West 247 284 9,100 -1,320 Descending Miami Center
06:06PM 25.5458 -79.9703 301° West 231 266 8,700 -900 Descending Miami Center
06:07PM 25.5514 -80.0028 281° West 235 270 8,200 -720 Descending Miami Center
06:07PM 25.5506 -80.0394 269° West 224 258 8,000 -240 Descending Miami Center
06:08PM 25.5542 -80.0719 277° West 225 259 8,000  Level Miami Center
06:08PM 25.5556 -80.1064 273° West 226 260 8,000  Level Miami Center
06:09PM 25.5589 -80.1411 276° West 225 259 8,000  Level Miami Center
06:09PM 25.5600 -80.1781 272° West 226 260 8,000  Level Miami Center
06:10PM 25.5636 -80.2103 277° West 225 259 8,000  Level Miami Center
06:10PM 25.5647 -80.2472 272° West 226 260 8,000 -420 Level Miami Center
06:11PM 25.5725 -80.2797 285° West 230 265 7,600 -1,020 Descending Miami Center
06:12PM 25.5903 -80.3239 294° West 222 255 6,900 -1,560 Descending Miami Center
06:13PM 25.6158 -80.3844 295° West 216 249 5,100 -1,500 Descending Miami Center
06:14PM 25.6397 -80.4358 297° West 211 243 4,000 -720 Descending Miami Center
06:15PM 25.6486 -80.5031 278° West 215 247 3,700 -480 Descending Miami Center
06:16PM 25.6719 -80.5706 291° West 210 242 3,100 -360 Descending Miami Center
06:17PM 25.7183 -80.5511 21° North 183 211 3,000  Descending Miami Center
06:18PM 25.7489 -80.4992 57° Northeast 196 226 3,100 60 Climbing Miami Center